sensor_id;sensor_type;location;lat;lon;timestamp;P1;durP1;ratioP1;P2;durP2;ratioP2
2750;SDS011;1383;48.362;10.908;2023-03-23T00:00:04;10.60;;;8.83;;
2750;SDS011;1383;48.362;10.908;2023-03-23T00:02:31;10.00;;;9.00;;
2750;SDS011;1383;48.362;10.908;2023-03-23T00:05:07;8.50;;;7.63;;
2750;SDS011;1383;48.362;10.908;2023-03-23T00:07:33;7.73;;;6.63;;
2750;SDS011;1383;48.362;10.908;2023-03-23T00:10:00;9.10;;;7.63;;
2750;SDS011;1383;48.362;10.908;2023-03-23T00:12:28;11.50;;;7.40;;
2750;SDS011;1383;48.362;10.908;2023-03-23T00:15:02;10.23;;;7.43;;
2750;SDS011;1383;48.362;10.908;2023-03-23T00:17:30;8.73;;;7.17;;
2750;SDS011;1383;48.362;10.908;2023-03-23T00:19:58;7.80;;;7.00;;
2750;SDS011;1383;48.362;10.908;2023-03-23T00:22:26;8.97;;;7.00;;
2750;SDS011;1383;48.362;10.908;2023-03-23T00:24:53;9.50;;;6.77;;
2750;SDS011;1383;48.362;10.908;2023-03-23T00:27:20;9.20;;;7.50;;
2750;SDS011;1383;48.362;10.908;2023-03-23T00:29:49;9.43;;;8.17;;
2750;SDS011;1383;48.362;10.908;2023-03-23T00:32:21;9.20;;;7.93;;
2750;SDS011;1383;48.362;10.908;2023-03-23T00:34:52;7.23;;;6.27;;
2750;SDS011;1383;48.362;10.908;2023-03-23T00:37:19;10.10;;;7.10;;
2750;SDS011;1383;48.362;10.908;2023-03-23T00:39:45;8.50;;;7.50;;
2750;SDS011;1383;48.362;10.908;2023-03-23T00:42:14;8.90;;;7.10;;
2750;SDS011;1383;48.362;10.908;2023-03-23T00:44:41;7.80;;;6.70;;
2750;SDS011;1383;48.362;10.908;2023-03-23T00:47:09;11.27;;;7.60;;
2750;SDS011;1383;48.362;10.908;2023-03-23T00:49:36;9.77;;;7.63;;
2750;SDS011;1383;48.362;10.908;2023-03-23T00:52:03;9.00;;;8.10;;
2750;SDS011;1383;48.362;10.908;2023-03-23T00:54:30;7.80;;;7.00;;
2750;SDS011;1383;48.362;10.908;2023-03-23T00:56:57;9.43;;;8.17;;
2750;SDS011;1383;48.362;10.908;2023-03-23T00:59:22;9.00;;;7.67;;
2750;SDS011;1383;48.362;10.908;2023-03-23T01:01:48;8.13;;;6.70;;
2750;SDS011;1383;48.362;10.908;2023-03-23T01:04:15;8.30;;;7.27;;
2750;SDS011;1383;48.362;10.908;2023-03-23T01:06:42;11.03;;;7.37;;
2750;SDS011;1383;48.362;10.908;2023-03-23T01:09:13;8.67;;;7.77;;
2750;SDS011;1383;48.362;10.908;2023-03-23T01:11:42;9.23;;;7.60;;
2750;SDS011;1383;48.362;10.908;2023-03-23T01:14:09;10.10;;;7.13;;
2750;SDS011;1383;48.362;10.908;2023-03-23T01:16:35;10.10;;;7.33;;
2750;SDS011;1383;48.362;10.908;2023-03-23T01:19:01;7.07;;;6.37;;
2750;SDS011;1383;48.362;10.908;2023-03-23T01:21:27;11.37;;;6.40;;
2750;SDS011;1383;48.362;10.908;2023-03-23T01:23:53;11.90;;;7.33;;
2750;SDS011;1383;48.362;10.908;2023-03-23T01:26:20;7.77;;;6.63;;
2750;SDS011;1383;48.362;10.908;2023-03-23T01:28:47;10.20;;;7.70;;
2750;SDS011;1383;48.362;10.908;2023-03-23T01:31:14;12.40;;;6.87;;
2750;SDS011;1383;48.362;10.908;2023-03-23T01:33:41;9.00;;;6.70;;
2750;SDS011;1383;48.362;10.908;2023-03-23T01:36:12;8.20;;;7.10;;
2750;SDS011;1383;48.362;10.908;2023-03-23T01:38:43;7.10;;;5.90;;
2750;SDS011;1383;48.362;10.908;2023-03-23T01:41:10;10.00;;;7.10;;
2750;SDS011;1383;48.362;10.908;2023-03-23T01:43:52;10.00;;;7.47;;
2750;SDS011;1383;48.362;10.908;2023-03-23T01:46:38;7.90;;;7.10;;
2750;SDS011;1383;48.362;10.908;2023-03-23T01:49:24;10.37;;;7.20;;
2750;SDS011;1383;48.362;10.908;2023-03-23T01:51:56;10.40;;;7.17;;
2750;SDS011;1383;48.362;10.908;2023-03-23T01:54:50;8.67;;;7.57;;
2750;SDS011;1383;48.362;10.908;2023-03-23T01:57:19;7.23;;;6.53;;
2750;SDS011;1383;48.362;10.908;2023-03-23T01:59:49;11.73;;;8.20;;
2750;SDS011;1383;48.362;10.908;2023-03-23T02:02:17;8.60;;;6.90;;
2750;SDS011;1383;48.362;10.908;2023-03-23T02:04:46;7.40;;;6.70;;
2750;SDS011;1383;48.362;10.908;2023-03-23T02:07:12;7.57;;;6.80;;
2750;SDS011;1383;48.362;10.908;2023-03-23T02:09:40;10.00;;;6.70;;
2750;SDS011;1383;48.362;10.908;2023-03-23T02:12:06;9.90;;;7.00;;
2750;SDS011;1383;48.362;10.908;2023-03-23T02:14:32;7.93;;;5.90;;
2750;SDS011;1383;48.362;10.908;2023-03-23T02:17:08;8.70;;;6.37;;
2750;SDS011;1383;48.362;10.908;2023-03-23T02:31:06;11.03;;;6.43;;
2750;SDS011;1383;48.362;10.908;2023-03-23T02:36:49;8.00;;;6.37;;
2750;SDS011;1383;48.362;10.908;2023-03-23T02:39:52;6.70;;;6.00;;
2750;SDS011;1383;48.362;10.908;2023-03-23T02:42:24;5.43;;;4.90;;
2750;SDS011;1383;48.362;10.908;2023-03-23T02:44:53;7.50;;;5.80;;
2750;SDS011;1383;48.362;10.908;2023-03-23T02:47:22;6.67;;;5.10;;
2750;SDS011;1383;48.362;10.908;2023-03-23T02:49:50;7.37;;;5.70;;
2750;SDS011;1383;48.362;10.908;2023-03-23T02:52:22;12.23;;;6.27;;
2750;SDS011;1383;48.362;10.908;2023-03-23T02:54:52;8.83;;;6.90;;
2750;SDS011;1383;48.362;10.908;2023-03-23T02:57:20;9.10;;;5.97;;
2750;SDS011;1383;48.362;10.908;2023-03-23T02:59:48;6.00;;;5.40;;
2750;SDS011;1383;48.362;10.908;2023-03-23T03:02:16;6.90;;;5.47;;
2750;SDS011;1383;48.362;10.908;2023-03-23T03:04:46;6.17;;;5.47;;
2750;SDS011;1383;48.362;10.908;2023-03-23T03:07:53;6.40;;;5.87;;
2750;SDS011;1383;48.362;10.908;2023-03-23T03:10:28;7.30;;;6.17;;
2750;SDS011;1383;48.362;10.908;2023-03-23T03:13:03;8.07;;;5.27;;
2750;SDS011;1383;48.362;10.908;2023-03-23T03:15:36;6.70;;;5.90;;
2750;SDS011;1383;48.362;10.908;2023-03-23T03:18:18;6.83;;;6.03;;
2750;SDS011;1383;48.362;10.908;2023-03-23T03:21:06;7.87;;;6.27;;
2750;SDS011;1383;48.362;10.908;2023-03-23T03:23:38;10.67;;;6.00;;
2750;SDS011;1383;48.362;10.908;2023-03-23T03:26:06;6.53;;;5.53;;
2750;SDS011;1383;48.362;10.908;2023-03-23T03:28:37;6.60;;;5.73;;
2750;SDS011;1383;48.362;10.908;2023-03-23T03:31:03;13.93;;;6.60;;
2750;SDS011;1383;48.362;10.908;2023-03-23T03:33:30;7.60;;;6.93;;
2750;SDS011;1383;48.362;10.908;2023-03-23T03:35:59;5.97;;;5.03;;
2750;SDS011;1383;48.362;10.908;2023-03-23T03:38:27;7.57;;;5.47;;
2750;SDS011;1383;48.362;10.908;2023-03-23T03:40:54;7.03;;;6.07;;
2750;SDS011;1383;48.362;10.908;2023-03-23T03:43:21;8.20;;;7.10;;
2750;SDS011;1383;48.362;10.908;2023-03-23T03:45:47;7.60;;;6.30;;
2750;SDS011;1383;48.362;10.908;2023-03-23T03:48:12;6.73;;;5.93;;
2750;SDS011;1383;48.362;10.908;2023-03-23T03:50:38;7.30;;;5.97;;
2750;SDS011;1383;48.362;10.908;2023-03-23T03:53:04;7.13;;;6.33;;
2750;SDS011;1383;48.362;10.908;2023-03-23T03:55:31;9.57;;;5.90;;
2750;SDS011;1383;48.362;10.908;2023-03-23T03:58:00;5.67;;;5.10;;
2750;SDS011;1383;48.362;10.908;2023-03-23T04:00:27;7.63;;;6.00;;
2750;SDS011;1383;48.362;10.908;2023-03-23T04:02:53;7.43;;;6.77;;
2750;SDS011;1383;48.362;10.908;2023-03-23T04:05:20;8.03;;;6.27;;
2750;SDS011;1383;48.362;10.908;2023-03-23T04:07:47;7.50;;;6.20;;
2750;SDS011;1383;48.362;10.908;2023-03-23T04:10:17;8.10;;;5.53;;
2750;SDS011;1383;48.362;10.908;2023-03-23T04:12:46;8.73;;;5.90;;
2750;SDS011;1383;48.362;10.908;2023-03-23T04:15:15;7.23;;;5.70;;
2750;SDS011;1383;48.362;10.908;2023-03-23T04:17:41;6.20;;;5.60;;
2750;SDS011;1383;48.362;10.908;2023-03-23T04:20:08;5.73;;;4.63;;
2750;SDS011;1383;48.362;10.908;2023-03-23T04:22:46;5.57;;;4.83;;
2750;SDS011;1383;48.362;10.908;2023-03-23T04:25:15;5.63;;;5.13;;
2750;SDS011;1383;48.362;10.908;2023-03-23T04:27:42;7.13;;;6.20;;
2750;SDS011;1383;48.362;10.908;2023-03-23T04:30:09;10.00;;;5.80;;
2750;SDS011;1383;48.362;10.908;2023-03-23T04:32:37;7.40;;;6.27;;
2750;SDS011;1383;48.362;10.908;2023-03-23T04:35:05;9.20;;;6.47;;
2750;SDS011;1383;48.362;10.908;2023-03-23T04:37:31;6.43;;;5.73;;
2750;SDS011;1383;48.362;10.908;2023-03-23T04:39:57;8.23;;;6.90;;
2750;SDS011;1383;48.362;10.908;2023-03-23T04:42:31;7.93;;;6.80;;
2750;SDS011;1383;48.362;10.908;2023-03-23T04:44:57;6.73;;;6.03;;
2750;SDS011;1383;48.362;10.908;2023-03-23T04:47:23;7.03;;;5.57;;
2750;SDS011;1383;48.362;10.908;2023-03-23T04:49:57;9.13;;;6.70;;
2750;SDS011;1383;48.362;10.908;2023-03-23T04:52:26;7.20;;;5.87;;
2750;SDS011;1383;48.362;10.908;2023-03-23T04:54:56;6.40;;;5.83;;
2750;SDS011;1383;48.362;10.908;2023-03-23T04:57:22;7.13;;;6.33;;
2750;SDS011;1383;48.362;10.908;2023-03-23T04:59:48;5.93;;;4.93;;
2750;SDS011;1383;48.362;10.908;2023-03-23T05:02:14;7.70;;;6.10;;
2750;SDS011;1383;48.362;10.908;2023-03-23T05:04:42;8.80;;;6.07;;
2750;SDS011;1383;48.362;10.908;2023-03-23T05:07:07;9.13;;;6.20;;
2750;SDS011;1383;48.362;10.908;2023-03-23T05:09:33;7.67;;;6.33;;
2750;SDS011;1383;48.362;10.908;2023-03-23T05:12:07;6.23;;;5.63;;
2750;SDS011;1383;48.362;10.908;2023-03-23T05:14:34;5.97;;;5.37;;
2750;SDS011;1383;48.362;10.908;2023-03-23T05:17:00;6.37;;;5.77;;
2750;SDS011;1383;48.362;10.908;2023-03-23T05:19:26;8.30;;;6.57;;
2750;SDS011;1383;48.362;10.908;2023-03-23T05:21:53;8.23;;;5.87;;
2750;SDS011;1383;48.362;10.908;2023-03-23T05:24:22;6.10;;;5.30;;
2750;SDS011;1383;48.362;10.908;2023-03-23T05:26:49;7.17;;;5.77;;
2750;SDS011;1383;48.362;10.908;2023-03-23T05:29:17;7.97;;;5.60;;
2750;SDS011;1383;48.362;10.908;2023-03-23T05:31:43;6.67;;;5.47;;
2750;SDS011;1383;48.362;10.908;2023-03-23T05:34:09;6.53;;;5.80;;
2750;SDS011;1383;48.362;10.908;2023-03-23T05:36:37;5.67;;;5.00;;
2750;SDS011;1383;48.362;10.908;2023-03-23T05:39:02;5.50;;;4.90;;
2750;SDS011;1383;48.362;10.908;2023-03-23T05:41:28;7.87;;;6.13;;
2750;SDS011;1383;48.362;10.908;2023-03-23T05:43:54;5.73;;;5.17;;
2750;SDS011;1383;48.362;10.908;2023-03-23T05:46:20;7.77;;;5.80;;
2750;SDS011;1383;48.362;10.908;2023-03-23T05:48:46;7.13;;;6.20;;
2750;SDS011;1383;48.362;10.908;2023-03-23T05:51:12;6.63;;;5.60;;
2750;SDS011;1383;48.362;10.908;2023-03-23T05:53:37;7.13;;;5.30;;
2750;SDS011;1383;48.362;10.908;2023-03-23T05:56:03;7.50;;;5.33;;
2750;SDS011;1383;48.362;10.908;2023-03-23T05:58:29;7.30;;;4.87;;
2750;SDS011;1383;48.362;10.908;2023-03-23T06:00:55;14.50;;;5.67;;
2750;SDS011;1383;48.362;10.908;2023-03-23T06:03:21;6.20;;;4.40;;
2750;SDS011;1383;48.362;10.908;2023-03-23T06:05:48;7.80;;;4.53;;
2750;SDS011;1383;48.362;10.908;2023-03-23T06:08:14;6.43;;;5.07;;
2750;SDS011;1383;48.362;10.908;2023-03-23T06:10:39;5.30;;;4.37;;
2750;SDS011;1383;48.362;10.908;2023-03-23T06:13:05;7.90;;;5.17;;
2750;SDS011;1383;48.362;10.908;2023-03-23T06:15:31;5.97;;;5.37;;
2750;SDS011;1383;48.362;10.908;2023-03-23T06:18:01;6.83;;;4.47;;
2750;SDS011;1383;48.362;10.908;2023-03-23T06:20:29;7.73;;;4.80;;
2750;SDS011;1383;48.362;10.908;2023-03-23T06:22:55;6.60;;;5.03;;
2750;SDS011;1383;48.362;10.908;2023-03-23T06:25:21;8.53;;;5.30;;
2750;SDS011;1383;48.362;10.908;2023-03-23T06:27:49;6.43;;;5.80;;
2750;SDS011;1383;48.362;10.908;2023-03-23T06:30:17;6.10;;;5.20;;
2750;SDS011;1383;48.362;10.908;2023-03-23T06:32:43;5.70;;;4.83;;
2750;SDS011;1383;48.362;10.908;2023-03-23T06:35:12;8.57;;;4.97;;
2750;SDS011;1383;48.362;10.908;2023-03-23T06:37:39;6.40;;;5.80;;
2750;SDS011;1383;48.362;10.908;2023-03-23T06:40:05;17.13;;;5.83;;
2750;SDS011;1383;48.362;10.908;2023-03-23T06:42:31;6.10;;;4.80;;
2750;SDS011;1383;48.362;10.908;2023-03-23T06:44:57;9.93;;;4.80;;
2750;SDS011;1383;48.362;10.908;2023-03-23T06:47:25;6.00;;;5.40;;
2750;SDS011;1383;48.362;10.908;2023-03-23T06:49:54;6.87;;;5.73;;
2750;SDS011;1383;48.362;10.908;2023-03-23T06:52:20;5.30;;;4.50;;
2750;SDS011;1383;48.362;10.908;2023-03-23T06:54:47;5.80;;;5.00;;
2750;SDS011;1383;48.362;10.908;2023-03-23T06:57:13;10.33;;;5.10;;
2750;SDS011;1383;48.362;10.908;2023-03-23T06:59:39;6.33;;;5.23;;
2750;SDS011;1383;48.362;10.908;2023-03-23T07:02:08;8.80;;;4.57;;
2750;SDS011;1383;48.362;10.908;2023-03-23T07:04:34;6.50;;;5.10;;
2750;SDS011;1383;48.362;10.908;2023-03-23T07:07:00;8.13;;;5.33;;
2750;SDS011;1383;48.362;10.908;2023-03-23T07:09:26;10.73;;;4.77;;
2750;SDS011;1383;48.362;10.908;2023-03-23T07:11:52;7.07;;;4.60;;
2750;SDS011;1383;48.362;10.908;2023-03-23T07:14:18;9.47;;;4.57;;
2750;SDS011;1383;48.362;10.908;2023-03-23T07:16:44;8.00;;;6.00;;
2750;SDS011;1383;48.362;10.908;2023-03-23T07:19:11;8.17;;;5.50;;
2750;SDS011;1383;48.362;10.908;2023-03-23T07:21:36;5.63;;;4.50;;
2750;SDS011;1383;48.362;10.908;2023-03-23T07:24:02;10.13;;;4.63;;
2750;SDS011;1383;48.362;10.908;2023-03-23T07:26:28;7.80;;;4.40;;
2750;SDS011;1383;48.362;10.908;2023-03-23T07:28:54;10.10;;;6.67;;
2750;SDS011;1383;48.362;10.908;2023-03-23T07:31:19;8.53;;;5.30;;
2750;SDS011;1383;48.362;10.908;2023-03-23T07:33:45;8.20;;;5.17;;
2750;SDS011;1383;48.362;10.908;2023-03-23T07:36:11;11.60;;;5.57;;
2750;SDS011;1383;48.362;10.908;2023-03-23T07:38:37;6.77;;;5.60;;
2750;SDS011;1383;48.362;10.908;2023-03-23T07:41:03;7.17;;;4.67;;
2750;SDS011;1383;48.362;10.908;2023-03-23T07:43:30;7.70;;;6.90;;
2750;SDS011;1383;48.362;10.908;2023-03-23T07:45:57;7.10;;;5.67;;
2750;SDS011;1383;48.362;10.908;2023-03-23T07:48:22;5.60;;;4.30;;
2750;SDS011;1383;48.362;10.908;2023-03-23T07:50:48;7.30;;;5.97;;
2750;SDS011;1383;48.362;10.908;2023-03-23T07:53:14;6.33;;;5.30;;
2750;SDS011;1383;48.362;10.908;2023-03-23T07:55:40;7.60;;;5.30;;
2750;SDS011;1383;48.362;10.908;2023-03-23T07:58:06;7.10;;;5.53;;
2750;SDS011;1383;48.362;10.908;2023-03-23T08:00:32;7.07;;;4.27;;
2750;SDS011;1383;48.362;10.908;2023-03-23T08:02:58;8.40;;;5.13;;
2750;SDS011;1383;48.362;10.908;2023-03-23T08:05:24;6.07;;;4.97;;
2750;SDS011;1383;48.362;10.908;2023-03-23T08:07:52;7.90;;;5.63;;
2750;SDS011;1383;48.362;10.908;2023-03-23T08:10:22;6.37;;;5.47;;
2750;SDS011;1383;48.362;10.908;2023-03-23T08:12:51;13.70;;;5.10;;
2750;SDS011;1383;48.362;10.908;2023-03-23T08:15:18;8.10;;;5.33;;
2750;SDS011;1383;48.362;10.908;2023-03-23T08:17:46;6.33;;;4.90;;
2750;SDS011;1383;48.362;10.908;2023-03-23T08:20:12;12.90;;;5.40;;
2750;SDS011;1383;48.362;10.908;2023-03-23T08:22:39;6.83;;;4.23;;
2750;SDS011;1383;48.362;10.908;2023-03-23T08:25:06;5.87;;;4.70;;
2750;SDS011;1383;48.362;10.908;2023-03-23T08:27:33;8.17;;;5.47;;
2750;SDS011;1383;48.362;10.908;2023-03-23T08:29:58;8.10;;;4.60;;
2750;SDS011;1383;48.362;10.908;2023-03-23T08:32:24;5.70;;;4.63;;
2750;SDS011;1383;48.362;10.908;2023-03-23T08:34:51;6.50;;;4.23;;
2750;SDS011;1383;48.362;10.908;2023-03-23T08:37:17;6.20;;;4.50;;
2750;SDS011;1383;48.362;10.908;2023-03-23T08:39:42;4.60;;;4.07;;
2750;SDS011;1383;48.362;10.908;2023-03-23T08:42:09;3.73;;;3.33;;
2750;SDS011;1383;48.362;10.908;2023-03-23T08:44:35;5.57;;;3.97;;
2750;SDS011;1383;48.362;10.908;2023-03-23T08:47:01;4.70;;;3.77;;
2750;SDS011;1383;48.362;10.908;2023-03-23T08:49:28;4.33;;;3.53;;
2750;SDS011;1383;48.362;10.908;2023-03-23T08:51:58;5.00;;;2.27;;
2750;SDS011;1383;48.362;10.908;2023-03-23T08:54:24;7.40;;;3.20;;
2750;SDS011;1383;48.362;10.908;2023-03-23T08:56:51;2.03;;;1.90;;
2750;SDS011;1383;48.362;10.908;2023-03-23T08:59:17;3.30;;;2.03;;
2750;SDS011;1383;48.362;10.908;2023-03-23T09:01:43;2.83;;;2.53;;
2750;SDS011;1383;48.362;10.908;2023-03-23T09:04:09;3.53;;;2.47;;
2750;SDS011;1383;48.362;10.908;2023-03-23T09:06:36;2.70;;;2.20;;
2750;SDS011;1383;48.362;10.908;2023-03-23T09:09:02;3.17;;;2.10;;
2750;SDS011;1383;48.362;10.908;2023-03-23T09:11:32;2.30;;;2.10;;
2750;SDS011;1383;48.362;10.908;2023-03-23T09:13:59;3.63;;;2.00;;
2750;SDS011;1383;48.362;10.908;2023-03-23T09:16:26;1.90;;;1.80;;
2750;SDS011;1383;48.362;10.908;2023-03-23T09:18:53;2.33;;;1.80;;
2750;SDS011;1383;48.362;10.908;2023-03-23T09:21:20;7.57;;;6.80;;
2750;SDS011;1383;48.362;10.908;2023-03-23T09:23:47;3.67;;;2.50;;
2750;SDS011;1383;48.362;10.908;2023-03-23T09:26:13;4.90;;;1.93;;
2750;SDS011;1383;48.362;10.908;2023-03-23T09:28:39;2.63;;;2.33;;
2750;SDS011;1383;48.362;10.908;2023-03-23T09:31:05;1.93;;;1.73;;
2750;SDS011;1383;48.362;10.908;2023-03-23T09:33:31;2.30;;;2.03;;
2750;SDS011;1383;48.362;10.908;2023-03-23T09:35:59;3.90;;;3.60;;
2750;SDS011;1383;48.362;10.908;2023-03-23T09:38:28;3.50;;;1.90;;
2750;SDS011;1383;48.362;10.908;2023-03-23T09:41:01;2.53;;;2.10;;
2750;SDS011;1383;48.362;10.908;2023-03-23T09:49:05;1.70;;;1.60;;
2750;SDS011;1383;48.362;10.908;2023-03-23T09:54:18;3.00;;;1.93;;
2750;SDS011;1383;48.362;10.908;2023-03-23T09:56:48;1.87;;;1.67;;
2750;SDS011;1383;48.362;10.908;2023-03-23T10:04:49;5.10;;;1.80;;
2750;SDS011;1383;48.362;10.908;2023-03-23T10:07:21;3.33;;;1.67;;
2750;SDS011;1383;48.362;10.908;2023-03-23T10:09:50;2.20;;;2.00;;
2750;SDS011;1383;48.362;10.908;2023-03-23T10:12:36;4.10;;;1.80;;
2750;SDS011;1383;48.362;10.908;2023-03-23T10:17:43;2.33;;;1.93;;
2750;SDS011;1383;48.362;10.908;2023-03-23T10:28:50;8.40;;;7.50;;
2750;SDS011;1383;48.362;10.908;2023-03-23T10:31:21;2.77;;;2.30;;
2750;SDS011;1383;48.362;10.908;2023-03-23T10:33:50;15.67;;;13.33;;
2750;SDS011;1383;48.362;10.908;2023-03-23T10:36:34;7.50;;;6.73;;
2750;SDS011;1383;48.362;10.908;2023-03-23T10:39:11;5.17;;;3.93;;
2750;SDS011;1383;48.362;10.908;2023-03-23T10:41:40;3.50;;;2.87;;
2750;SDS011;1383;48.362;10.908;2023-03-23T10:44:24;4.90;;;2.17;;
2750;SDS011;1383;48.362;10.908;2023-03-23T10:46:53;1.80;;;1.70;;
2750;SDS011;1383;48.362;10.908;2023-03-23T10:49:25;2.00;;;1.80;;
2750;SDS011;1383;48.362;10.908;2023-03-23T10:52:09;3.77;;;3.13;;
2750;SDS011;1383;48.362;10.908;2023-03-23T10:54:39;2.97;;;2.37;;
2750;SDS011;1383;48.362;10.908;2023-03-23T10:57:17;5.07;;;2.40;;
2750;SDS011;1383;48.362;10.908;2023-03-23T11:02:26;2.10;;;1.87;;
2750;SDS011;1383;48.362;10.908;2023-03-23T11:04:54;1.50;;;1.40;;
2750;SDS011;1383;48.362;10.908;2023-03-23T11:07:26;2.60;;;2.20;;
2750;SDS011;1383;48.362;10.908;2023-03-23T11:09:55;2.60;;;2.17;;
2750;SDS011;1383;48.362;10.908;2023-03-23T11:12:24;3.40;;;2.13;;
2750;SDS011;1383;48.362;10.908;2023-03-23T11:14:51;2.70;;;2.00;;
2750;SDS011;1383;48.362;10.908;2023-03-23T11:17:24;2.90;;;1.60;;
2750;SDS011;1383;48.362;10.908;2023-03-23T11:19:52;3.30;;;2.57;;
2750;SDS011;1383;48.362;10.908;2023-03-23T11:22:29;1.60;;;1.43;;
2750;SDS011;1383;48.362;10.908;2023-03-23T11:25:02;3.50;;;2.13;;
2750;SDS011;1383;48.362;10.908;2023-03-23T11:27:30;2.23;;;2.03;;
2750;SDS011;1383;48.362;10.908;2023-03-23T11:30:01;2.47;;;2.00;;
2750;SDS011;1383;48.362;10.908;2023-03-23T11:32:34;2.70;;;1.70;;
2750;SDS011;1383;48.362;10.908;2023-03-23T11:35:02;2.43;;;2.00;;
2750;SDS011;1383;48.362;10.908;2023-03-23T11:37:35;2.53;;;2.33;;
2750;SDS011;1383;48.362;10.908;2023-03-23T11:42:43;2.27;;;1.63;;
2750;SDS011;1383;48.362;10.908;2023-03-23T11:45:17;1.97;;;1.73;;
2750;SDS011;1383;48.362;10.908;2023-03-23T11:50:28;1.97;;;1.80;;
2750;SDS011;1383;48.362;10.908;2023-03-23T11:58:22;2.90;;;1.87;;
2750;SDS011;1383;48.362;10.908;2023-03-23T12:00:50;4.20;;;2.30;;
2750;SDS011;1383;48.362;10.908;2023-03-23T12:03:21;1.97;;;1.73;;
2750;SDS011;1383;48.362;10.908;2023-03-23T12:05:55;4.23;;;2.10;;
2750;SDS011;1383;48.362;10.908;2023-03-23T12:08:37;3.17;;;2.00;;
2750;SDS011;1383;48.362;10.908;2023-03-23T12:16:47;1.60;;;1.50;;
2750;SDS011;1383;48.362;10.908;2023-03-23T12:27:44;1.60;;;1.50;;
2750;SDS011;1383;48.362;10.908;2023-03-23T12:32:58;2.23;;;2.00;;
2750;SDS011;1383;48.362;10.908;2023-03-23T12:38:31;3.37;;;1.50;;
2750;SDS011;1383;48.362;10.908;2023-03-23T12:41:29;2.80;;;1.60;;
2750;SDS011;1383;48.362;10.908;2023-03-23T12:44:05;5.80;;;2.00;;
2750;SDS011;1383;48.362;10.908;2023-03-23T12:46:42;3.17;;;1.90;;
2750;SDS011;1383;48.362;10.908;2023-03-23T12:54:35;2.90;;;1.60;;
2750;SDS011;1383;48.362;10.908;2023-03-23T12:57:10;2.30;;;1.70;;
2750;SDS011;1383;48.362;10.908;2023-03-23T13:02:57;2.33;;;1.83;;
2750;SDS011;1383;48.362;10.908;2023-03-23T13:05:29;2.80;;;1.73;;
2750;SDS011;1383;48.362;10.908;2023-03-23T13:08:18;2.00;;;1.70;;
2750;SDS011;1383;48.362;10.908;2023-03-23T13:10:52;5.60;;;1.83;;
2750;SDS011;1383;48.362;10.908;2023-03-23T13:13:23;2.27;;;1.67;;
2750;SDS011;1383;48.362;10.908;2023-03-23T13:16:07;2.00;;;1.73;;
2750;SDS011;1383;48.362;10.908;2023-03-23T13:23:53;3.27;;;2.20;;
2750;SDS011;1383;48.362;10.908;2023-03-23T13:26:26;2.60;;;1.90;;
2750;SDS011;1383;48.362;10.908;2023-03-23T13:31:49;6.90;;;2.67;;
2750;SDS011;1383;48.362;10.908;2023-03-23T13:34:20;3.40;;;2.30;;
2750;SDS011;1383;48.362;10.908;2023-03-23T13:36:56;3.60;;;2.20;;
2750;SDS011;1383;48.362;10.908;2023-03-23T13:40:13;2.97;;;1.70;;
2750;SDS011;1383;48.362;10.908;2023-03-23T13:42:19;2.30;;;1.97;;
2750;SDS011;1383;48.362;10.908;2023-03-23T13:47:35;3.07;;;1.87;;
2750;SDS011;1383;48.362;10.908;2023-03-23T14:08:44;3.03;;;2.30;;
2750;SDS011;1383;48.362;10.908;2023-03-23T14:18:41;2.90;;;2.33;;
2750;SDS011;1383;48.362;10.908;2023-03-23T14:21:15;2.70;;;2.00;;
2750;SDS011;1383;48.362;10.908;2023-03-23T14:23:42;1.97;;;1.87;;
2750;SDS011;1383;48.362;10.908;2023-03-23T14:26:12;3.87;;;2.10;;
2750;SDS011;1383;48.362;10.908;2023-03-23T14:28:43;5.10;;;2.20;;
2750;SDS011;1383;48.362;10.908;2023-03-23T14:31:14;3.10;;;2.10;;
2750;SDS011;1383;48.362;10.908;2023-03-23T14:33:44;4.17;;;2.10;;
2750;SDS011;1383;48.362;10.908;2023-03-23T14:36:10;4.37;;;2.30;;
2750;SDS011;1383;48.362;10.908;2023-03-23T14:38:36;2.60;;;1.83;;
2750;SDS011;1383;48.362;10.908;2023-03-23T14:41:04;2.40;;;2.13;;
2750;SDS011;1383;48.362;10.908;2023-03-23T14:43:31;3.83;;;1.90;;
2750;SDS011;1383;48.362;10.908;2023-03-23T14:46:00;2.10;;;1.90;;
2750;SDS011;1383;48.362;10.908;2023-03-23T14:48:29;5.17;;;2.27;;
2750;SDS011;1383;48.362;10.908;2023-03-23T14:50:56;3.17;;;2.63;;
2750;SDS011;1383;48.362;10.908;2023-03-23T14:53:25;2.30;;;2.10;;
2750;SDS011;1383;48.362;10.908;2023-03-23T14:55:59;4.13;;;2.10;;
2750;SDS011;1383;48.362;10.908;2023-03-23T14:58:27;2.07;;;1.87;;
2750;SDS011;1383;48.362;10.908;2023-03-23T15:03:32;3.10;;;2.13;;
2750;SDS011;1383;48.362;10.908;2023-03-23T15:06:03;2.93;;;2.03;;
2750;SDS011;1383;48.362;10.908;2023-03-23T15:08:32;3.07;;;2.70;;
2750;SDS011;1383;48.362;10.908;2023-03-23T15:13:28;4.87;;;1.93;;
2750;SDS011;1383;48.362;10.908;2023-03-23T15:16:02;4.40;;;2.57;;
2750;SDS011;1383;48.362;10.908;2023-03-23T15:18:34;1.87;;;1.67;;
2750;SDS011;1383;48.362;10.908;2023-03-23T15:21:10;2.60;;;2.10;;
2750;SDS011;1383;48.362;10.908;2023-03-23T15:23:45;3.50;;;2.80;;
2750;SDS011;1383;48.362;10.908;2023-03-23T15:26:17;2.40;;;2.00;;
2750;SDS011;1383;48.362;10.908;2023-03-23T15:31:40;3.17;;;2.40;;
2750;SDS011;1383;48.362;10.908;2023-03-23T15:36:52;3.10;;;2.13;;
2750;SDS011;1383;48.362;10.908;2023-03-23T15:39:27;4.93;;;2.53;;
2750;SDS011;1383;48.362;10.908;2023-03-23T15:41:53;3.47;;;2.23;;
2750;SDS011;1383;48.362;10.908;2023-03-23T15:44:20;3.73;;;2.63;;
2750;SDS011;1383;48.362;10.908;2023-03-23T15:46:53;2.83;;;2.00;;
2750;SDS011;1383;48.362;10.908;2023-03-23T15:49:40;3.37;;;2.70;;
2750;SDS011;1383;48.362;10.908;2023-03-23T15:52:11;3.93;;;2.40;;
2750;SDS011;1383;48.362;10.908;2023-03-23T15:54:38;3.03;;;2.13;;
2750;SDS011;1383;48.362;10.908;2023-03-23T15:57:03;6.30;;;2.70;;
2750;SDS011;1383;48.362;10.908;2023-03-23T15:59:29;3.20;;;2.30;;
2750;SDS011;1383;48.362;10.908;2023-03-23T16:01:56;2.67;;;2.40;;
2750;SDS011;1383;48.362;10.908;2023-03-23T16:04:23;3.07;;;1.97;;
2750;SDS011;1383;48.362;10.908;2023-03-23T16:06:51;3.87;;;2.73;;
2750;SDS011;1383;48.362;10.908;2023-03-23T16:09:21;4.57;;;2.30;;
2750;SDS011;1383;48.362;10.908;2023-03-23T16:11:48;2.90;;;2.67;;
2750;SDS011;1383;48.362;10.908;2023-03-23T16:14:15;3.20;;;2.30;;
2750;SDS011;1383;48.362;10.908;2023-03-23T16:16:45;2.80;;;2.57;;
2750;SDS011;1383;48.362;10.908;2023-03-23T16:19:18;7.50;;;2.73;;
2750;SDS011;1383;48.362;10.908;2023-03-23T16:21:49;2.30;;;2.10;;
2750;SDS011;1383;48.362;10.908;2023-03-23T16:24:16;3.63;;;2.63;;
2750;SDS011;1383;48.362;10.908;2023-03-23T16:26:44;2.57;;;2.07;;
2750;SDS011;1383;48.362;10.908;2023-03-23T16:29:12;3.70;;;2.33;;
2750;SDS011;1383;48.362;10.908;2023-03-23T16:32:00;6.43;;;4.00;;
2750;SDS011;1383;48.362;10.908;2023-03-23T16:34:27;3.83;;;2.93;;
2750;SDS011;1383;48.362;10.908;2023-03-23T16:36:58;7.20;;;4.00;;
2750;SDS011;1383;48.362;10.908;2023-03-23T16:39:25;4.70;;;3.10;;
2750;SDS011;1383;48.362;10.908;2023-03-23T16:41:52;3.67;;;2.50;;
2750;SDS011;1383;48.362;10.908;2023-03-23T16:44:18;3.77;;;2.23;;
2750;SDS011;1383;48.362;10.908;2023-03-23T16:46:45;3.53;;;2.27;;
2750;SDS011;1383;48.362;10.908;2023-03-23T16:49:12;5.20;;;2.47;;
2750;SDS011;1383;48.362;10.908;2023-03-23T16:51:39;3.23;;;2.43;;
2750;SDS011;1383;48.362;10.908;2023-03-23T16:54:08;5.03;;;2.53;;
2750;SDS011;1383;48.362;10.908;2023-03-23T16:56:35;2.47;;;2.20;;
2750;SDS011;1383;48.362;10.908;2023-03-23T16:59:02;2.47;;;2.13;;
2750;SDS011;1383;48.362;10.908;2023-03-23T17:01:29;5.17;;;2.40;;
2750;SDS011;1383;48.362;10.908;2023-03-23T17:03:56;5.80;;;2.23;;
2750;SDS011;1383;48.362;10.908;2023-03-23T17:06:23;4.87;;;2.40;;
2750;SDS011;1383;48.362;10.908;2023-03-23T17:08:50;3.87;;;2.80;;
2750;SDS011;1383;48.362;10.908;2023-03-23T17:11:17;3.87;;;2.40;;
2750;SDS011;1383;48.362;10.908;2023-03-23T17:13:44;5.33;;;2.50;;
2750;SDS011;1383;48.362;10.908;2023-03-23T17:16:11;6.27;;;2.93;;
2750;SDS011;1383;48.362;10.908;2023-03-23T17:18:38;3.40;;;3.10;;
2750;SDS011;1383;48.362;10.908;2023-03-23T17:21:05;5.67;;;3.30;;